createdAt,value
2022-10-05T00:01:44.531Z,2.87
2022-10-05T00:04:15.117Z,2.37
2022-10-05T00:06:43.713Z,2.20
2022-10-05T00:09:15.692Z,2.30
2022-10-05T00:11:42.748Z,3.10
2022-10-05T00:14:16.243Z,2.30
2022-10-05T00:16:43.190Z,2.93
2022-10-05T00:19:19.122Z,2.93
2022-10-05T00:21:46.048Z,2.73
2022-10-05T00:24:15.844Z,2.50
2022-10-05T00:26:42.691Z,2.50
2022-10-05T00:29:20.310Z,2.97
2022-10-05T00:31:47.214Z,2.50
2022-10-05T00:34:14.140Z,1.97
2022-10-05T00:36:43.747Z,3.30
2022-10-05T00:39:10.991Z,3.17
2022-10-05T00:41:55.424Z,3.20
2022-10-05T00:44:33.070Z,2.57
2022-10-05T00:47:12.829Z,2.93
2022-10-05T00:50:03.738Z,3.80
2022-10-05T00:52:38.507Z,3.50
2022-10-05T00:55:13.101Z,3.83
2022-10-05T00:57:50.887Z,3.10
2022-10-05T01:00:20.165Z,3.10
2022-10-05T01:02:55.827Z,3.20
2022-10-05T01:05:38.764Z,3.97
2022-10-05T01:08:17.970Z,3.30
2022-10-05T01:10:53.654Z,3.50
2022-10-05T01:13:27.323Z,3.80
2022-10-05T01:16:03.194Z,3.53
2022-10-05T01:18:37.381Z,3.20
2022-10-05T01:21:10.596Z,3.50
2022-10-05T01:24:12.373Z,3.70
2022-10-05T01:26:56.612Z,3.13
2022-10-05T01:29:28.150Z,4.73
2022-10-05T01:32:01.662Z,3.50
2022-10-05T01:34:35.909Z,3.47
2022-10-05T01:37:09.636Z,3.90
2022-10-05T01:39:46.408Z,4.07
2022-10-05T01:42:21.758Z,3.10
2022-10-05T01:44:58.863Z,3.00
2022-10-05T01:47:35.298Z,3.67
2022-10-05T01:50:07.583Z,3.30
2022-10-05T01:52:43.735Z,3.23
2022-10-05T01:55:20.512Z,2.57
2022-10-05T01:58:02.483Z,3.60
2022-10-05T02:00:36.909Z,3.50
2022-10-05T02:03:08.011Z,3.33
2022-10-05T02:05:41.066Z,3.00
2022-10-05T02:08:13.941Z,3.77
2022-10-05T02:10:46.180Z,3.07
2022-10-05T02:13:19.466Z,3.70
2022-10-05T02:15:54.205Z,3.53
2022-10-05T02:18:24.964Z,3.60
2022-10-05T02:20:54.463Z,3.03
2022-10-05T02:23:25.177Z,3.00
2022-10-05T02:25:54.264Z,3.00
2022-10-05T02:28:28.530Z,2.47
2022-10-05T02:31:03.926Z,3.17
2022-10-05T02:33:32.699Z,4.43
2022-10-05T02:36:02.237Z,3.73
2022-10-05T02:38:38.530Z,3.40
2022-10-05T02:41:14.108Z,3.20
2022-10-05T02:43:50.997Z,4.17
2022-10-05T02:46:30.931Z,3.10
2022-10-05T02:49:10.131Z,3.03
2022-10-05T02:51:47.633Z,3.30
2022-10-05T02:54:27.461Z,3.67
2022-10-05T02:56:59.457Z,3.50
2022-10-05T02:59:33.180Z,3.40
2022-10-05T03:02:09.384Z,3.40
2022-10-05T03:04:41.332Z,3.50
2022-10-05T03:07:14.345Z,4.20
2022-10-05T03:09:45.342Z,3.10
2022-10-05T03:12:22.346Z,3.77
2022-10-05T03:14:58.896Z,3.33
2022-10-05T03:17:30.873Z,2.90
2022-10-05T03:20:14.982Z,3.10
2022-10-05T03:22:49.750Z,2.77
2022-10-05T03:25:52.187Z,3.17
2022-10-05T03:28:24.144Z,3.00
2022-10-05T03:30:58.600Z,3.03
2022-10-05T03:33:37.968Z,3.80
2022-10-05T03:36:15.037Z,2.90
2022-10-05T03:38:45.960Z,2.77
2022-10-05T03:41:17.678Z,3.50
2022-10-05T03:44:09.772Z,3.27
2022-10-05T03:46:58.648Z,3.50
2022-10-05T03:49:38.959Z,3.70
2022-10-05T03:52:11.161Z,3.07
2022-10-05T03:54:43.233Z,3.00
2022-10-05T03:57:13.377Z,3.50
2022-10-05T03:59:46.010Z,3.90
2022-10-05T04:02:19.837Z,4.13
2022-10-05T04:04:54.711Z,3.53
2022-10-05T04:07:32.186Z,4.07
2022-10-05T04:10:03.187Z,2.90
2022-10-05T04:12:34.291Z,3.20
2022-10-05T04:15:06.847Z,4.00
2022-10-05T04:17:39.144Z,3.93
2022-10-05T04:20:16.431Z,3.33
2022-10-05T04:22:51.944Z,3.60
2022-10-05T04:25:22.756Z,4.20
2022-10-05T04:27:54.717Z,5.00
2022-10-05T04:30:21.693Z,4.20
2022-10-05T04:32:53.011Z,3.70
2022-10-05T04:35:55.183Z,3.80
2022-10-05T04:38:43.469Z,3.90
2022-10-05T04:41:21.690Z,4.17
2022-10-05T04:44:01.659Z,4.43
2022-10-05T04:46:40.161Z,3.17
2022-10-05T04:49:42.584Z,3.07
2022-10-05T04:52:17.631Z,3.00
2022-10-05T04:54:56.261Z,3.47
2022-10-05T04:57:28.331Z,4.03
2022-10-05T05:00:08.319Z,3.67
2022-10-05T05:02:51.146Z,3.63
2022-10-05T05:05:34.222Z,3.47
2022-10-05T05:08:13.556Z,3.10
2022-10-05T05:11:15.051Z,3.33
2022-10-05T05:13:57.111Z,3.30
2022-10-05T05:16:32.422Z,4.00
2022-10-05T05:19:15.587Z,3.77
2022-10-05T05:21:51.645Z,3.10
2022-10-05T05:24:24.020Z,4.27
2022-10-05T05:27:09.505Z,3.13
2022-10-05T05:29:50.713Z,4.10
2022-10-05T05:32:27.497Z,4.37
2022-10-05T05:35:11.825Z,3.57
2022-10-05T05:37:44.907Z,3.50
2022-10-05T05:40:16.381Z,3.50
2022-10-05T05:42:52.474Z,3.60
2022-10-05T05:45:27.044Z,3.50
2022-10-05T05:47:54.934Z,3.80
2022-10-05T05:50:34.742Z,3.80
2022-10-05T05:53:10.839Z,3.87
2022-10-05T05:55:44.083Z,4.53
2022-10-05T05:58:20.483Z,4.13
2022-10-05T06:00:50.903Z,3.60
2022-10-05T06:03:24.512Z,4.47
2022-10-05T06:05:55.029Z,4.20
2022-10-05T06:08:28.539Z,3.90
2022-10-05T06:10:59.190Z,3.50
2022-10-05T06:13:34.244Z,3.73
2022-10-05T06:16:10.089Z,4.20
2022-10-05T06:18:40.568Z,4.77
2022-10-05T06:21:11.748Z,4.13
2022-10-05T06:23:43.072Z,4.70
2022-10-05T06:26:25.255Z,3.90
2022-10-05T06:28:58.547Z,4.00
2022-10-05T06:31:40.512Z,3.97
2022-10-05T06:34:20.366Z,4.60
2022-10-05T06:36:52.743Z,5.80
2022-10-05T06:40:01.271Z,4.77
2022-10-05T06:42:43.914Z,4.57
2022-10-05T06:45:22.101Z,5.17
2022-10-05T06:47:53.904Z,5.47
2022-10-05T06:50:32.229Z,4.73
2022-10-05T06:53:19.870Z,5.20
2022-10-05T06:55:53.296Z,4.03
2022-10-05T06:58:45.967Z,3.90
2022-10-05T07:01:23.069Z,4.67
2022-10-05T07:04:08.531Z,4.80
2022-10-05T07:06:40.203Z,5.17
2022-10-05T07:09:20.770Z,5.17
2022-10-05T07:12:12.285Z,4.27
2022-10-05T07:14:59.127Z,5.30
2022-10-05T07:17:44.896Z,5.77
2022-10-05T07:20:18.497Z,4.80
2022-10-05T07:23:16.251Z,6.67
2022-10-05T07:25:49.259Z,5.70
2022-10-05T07:28:25.536Z,5.80
2022-10-05T07:30:58.278Z,5.30
2022-10-05T07:33:31.939Z,6.60
2022-10-05T07:36:05.251Z,5.30
2022-10-05T07:38:37.747Z,5.77
2022-10-05T07:41:06.718Z,4.70
2022-10-05T07:44:01.082Z,5.30
2022-10-05T07:46:40.675Z,4.80
2022-10-05T07:49:18.359Z,5.77
2022-10-05T07:51:48.299Z,5.10
2022-10-05T07:54:21.092Z,4.77
2022-10-05T07:56:53.328Z,5.43
2022-10-05T07:59:29.995Z,5.40
2022-10-05T08:02:06.932Z,5.70
2022-10-05T08:04:44.899Z,5.73
2022-10-05T08:07:15.549Z,6.40
2022-10-05T08:09:49.853Z,4.70
2022-10-05T08:12:24.841Z,6.83
2022-10-05T08:14:56.071Z,5.33
2022-10-05T08:17:30.490Z,5.87
2022-10-05T08:20:06.119Z,5.50
2022-10-05T08:22:41.105Z,5.40
2022-10-05T08:25:18.935Z,4.87
2022-10-05T08:27:50.700Z,4.77
2022-10-05T08:30:17.814Z,5.67
2022-10-05T08:32:49.499Z,5.10
2022-10-05T08:35:26.804Z,6.00
2022-10-05T08:37:54.421Z,5.97
2022-10-05T08:41:03.059Z,6.47
2022-10-05T08:43:54.573Z,4.80
2022-10-05T08:47:12.543Z,5.13
2022-10-05T08:50:18.362Z,5.70
2022-10-05T08:53:19.705Z,6.63
2022-10-05T08:55:57.040Z,5.93
2022-10-05T08:58:44.040Z,5.20
2022-10-05T09:01:21.076Z,5.93
2022-10-05T09:04:16.596Z,5.30
2022-10-05T09:07:00.611Z,5.53
2022-10-05T09:09:43.896Z,5.73
2022-10-05T09:12:42.843Z,5.03
2022-10-05T09:15:36.880Z,5.83
2022-10-05T09:18:37.155Z,5.70
2022-10-05T09:21:12.954Z,7.20
2022-10-05T09:23:41.253Z,6.73
2022-10-05T09:26:42.120Z,6.53
2022-10-05T09:29:32.022Z,6.80
2022-10-05T09:32:18.801Z,6.80
2022-10-05T09:35:13.594Z,6.60
2022-10-05T09:38:11.251Z,5.67
2022-10-05T09:41:17.228Z,6.20
2022-10-05T09:44:22.336Z,6.00
2022-10-05T09:47:06.569Z,6.50
2022-10-05T09:50:01.798Z,5.80
2022-10-05T09:53:00.028Z,4.87
2022-10-05T09:55:59.911Z,5.73
2022-10-05T09:59:12.298Z,5.40
2022-10-05T10:02:11.153Z,5.20
2022-10-05T10:05:06.707Z,4.47
2022-10-05T10:07:50.887Z,5.70
2022-10-05T10:10:49.791Z,5.37
2022-10-05T10:13:46.356Z,4.63
2022-10-05T10:16:26.652Z,5.30
2022-10-05T10:19:24.525Z,5.07
2022-10-05T10:22:10.101Z,4.50
2022-10-05T10:24:55.832Z,4.07
2022-10-05T10:27:41.928Z,4.10
2022-10-05T10:30:40.736Z,4.07
2022-10-05T10:33:21.987Z,3.90
2022-10-05T10:36:00.513Z,5.40
2022-10-05T10:38:38.752Z,5.43
2022-10-05T10:41:25.165Z,4.63
2022-10-05T10:44:23.553Z,4.07
2022-10-05T10:47:04.429Z,4.47
2022-10-05T10:49:52.826Z,4.10
2022-10-05T10:52:37.093Z,4.00
2022-10-05T10:55:25.268Z,4.80
2022-10-05T11:01:18.443Z,4.80
2022-10-05T11:04:26.379Z,4.43
2022-10-05T11:07:21.299Z,5.07
2022-10-05T11:10:17.080Z,4.90
2022-10-05T11:13:12.104Z,4.47
2022-10-05T11:18:57.200Z,4.40
2022-10-05T11:21:27.724Z,5.20
2022-10-05T11:24:20.816Z,4.00
2022-10-05T11:27:01.943Z,5.27
2022-10-05T11:29:56.581Z,4.60
2022-10-05T11:32:50.731Z,3.50
2022-10-05T11:36:03.420Z,3.83
2022-10-05T11:39:05.476Z,5.10
2022-10-05T11:42:02.031Z,3.47
2022-10-05T11:45:04.992Z,4.60
2022-10-05T11:47:37.374Z,4.40
2022-10-05T11:50:15.884Z,4.80
2022-10-05T11:52:51.636Z,3.67
2022-10-05T11:55:26.369Z,4.10
2022-10-05T11:57:57.968Z,3.70
2022-10-05T12:00:29.414Z,3.73
2022-10-05T12:03:45.282Z,3.73
2022-10-05T12:06:21.816Z,4.40
2022-10-05T12:09:02.678Z,4.53
2022-10-05T12:11:44.845Z,4.47
2022-10-05T12:14:21.088Z,5.30
2022-10-05T12:16:56.607Z,5.00
2022-10-05T12:19:27.806Z,4.60
2022-10-05T12:21:58.499Z,4.57
2022-10-05T12:24:31.401Z,4.77
2022-10-05T12:27:06.125Z,4.60
2022-10-05T12:29:41.906Z,3.93
2022-10-05T12:32:13.281Z,4.20
2022-10-05T12:34:49.464Z,3.57
2022-10-05T12:37:37.234Z,4.37
2022-10-05T12:40:16.438Z,4.63
2022-10-05T12:42:50.029Z,5.17
2022-10-05T12:45:27.731Z,4.47
2022-10-05T12:48:33.457Z,4.77
2022-10-05T12:51:09.133Z,4.37
2022-10-05T12:53:47.087Z,4.57
2022-10-05T12:56:23.769Z,5.07
2022-10-05T12:58:57.325Z,4.30
2022-10-05T13:01:36.959Z,4.50
2022-10-05T13:04:13.548Z,4.60
2022-10-05T13:06:44.500Z,4.50
2022-10-05T13:09:18.547Z,5.03
2022-10-05T13:11:48.418Z,4.37
2022-10-05T13:14:23.352Z,4.80
2022-10-05T13:16:59.702Z,4.17
2022-10-05T13:19:36.337Z,4.23
2022-10-05T13:22:34.851Z,3.80
2022-10-05T13:25:20.191Z,4.43
2022-10-05T13:27:55.680Z,4.47
2022-10-05T13:30:25.493Z,3.60
2022-10-05T13:32:58.682Z,3.80
2022-10-05T13:35:37.837Z,3.37
2022-10-05T13:38:15.934Z,4.50
2022-10-05T13:40:49.870Z,3.07
2022-10-05T13:43:25.844Z,3.57
2022-10-05T13:45:56.838Z,4.00
2022-10-05T13:48:47.292Z,3.50
2022-10-05T13:51:18.340Z,4.27
2022-10-05T13:53:49.129Z,2.43
2022-10-05T13:56:22.213Z,3.00
2022-10-05T13:58:55.443Z,2.93
2022-10-05T14:01:34.977Z,3.20
2022-10-05T14:04:14.846Z,3.23
2022-10-05T14:06:41.936Z,2.83
2022-10-05T14:09:13.819Z,3.43
2022-10-05T14:11:49.043Z,2.93
2022-10-05T14:14:24.661Z,3.10
2022-10-05T14:16:55.090Z,3.00
2022-10-05T14:19:30.400Z,3.30
2022-10-05T14:22:00.786Z,2.93
2022-10-05T14:24:43.739Z,2.97
2022-10-05T14:27:21.217Z,2.80
2022-10-05T14:29:57.412Z,3.10
2022-10-05T14:32:25.616Z,3.47
2022-10-05T14:35:03.028Z,3.17
2022-10-05T14:37:42.189Z,3.00
2022-10-05T14:40:23.443Z,3.30
2022-10-05T14:42:50.770Z,3.07
2022-10-05T14:45:20.350Z,2.80
2022-10-05T14:47:49.673Z,3.33
2022-10-05T14:50:20.230Z,2.63
2022-10-05T14:53:03.241Z,3.73
2022-10-05T14:55:46.876Z,3.20
2022-10-05T14:58:39.001Z,2.53
2022-10-05T15:01:16.307Z,3.13
2022-10-05T15:03:50.956Z,3.43
2022-10-05T15:06:24.635Z,3.00
2022-10-05T15:09:17.629Z,3.90
2022-10-05T15:11:49.185Z,2.60
2022-10-05T15:14:19.813Z,2.47
2022-10-05T15:16:51.454Z,2.80
2022-10-05T15:19:22.478Z,2.70
2022-10-05T15:22:07.784Z,3.07
2022-10-05T15:24:43.640Z,2.67
2022-10-05T15:27:19.690Z,2.13
2022-10-05T15:29:58.916Z,2.57
2022-10-05T15:32:38.002Z,3.00
2022-10-05T15:35:29.415Z,2.80
2022-10-05T15:38:04.549Z,1.97
2022-10-05T15:40:36.608Z,2.10
2022-10-05T15:43:10.099Z,2.37
2022-10-05T15:45:43.754Z,2.17
2022-10-05T15:48:19.785Z,2.63
2022-10-05T15:50:54.892Z,2.20
2022-10-05T15:53:31.368Z,2.40
2022-10-05T15:56:03.633Z,2.10
2022-10-05T15:58:44.982Z,2.43
2022-10-05T16:01:15.429Z,2.00
2022-10-05T16:03:51.592Z,2.57
2022-10-05T16:06:32.304Z,2.33
2022-10-05T16:09:13.120Z,2.30
2022-10-05T16:11:54.300Z,2.40
2022-10-05T16:14:41.561Z,2.33
2022-10-05T16:17:23.904Z,2.33
2022-10-05T16:20:02.794Z,1.97
2022-10-05T16:22:43.090Z,2.50
2022-10-05T16:25:18.309Z,2.37
2022-10-05T16:28:05.533Z,3.00
2022-10-05T16:30:43.524Z,2.37
2022-10-05T16:33:17.877Z,2.33
2022-10-05T16:35:52.128Z,2.73
2022-10-05T16:38:25.250Z,2.10
2022-10-05T16:41:02.282Z,2.20
2022-10-05T16:43:39.950Z,2.60
2022-10-05T16:46:15.693Z,2.27
2022-10-05T16:48:55.187Z,2.67
2022-10-05T16:51:31.226Z,2.90
2022-10-05T16:54:09.456Z,2.60
2022-10-05T16:56:42.388Z,2.50
2022-10-05T16:59:56.998Z,2.30
2022-10-05T17:02:38.267Z,2.30
2022-10-05T17:05:20.311Z,2.70
2022-10-05T17:08:13.266Z,2.37
2022-10-05T17:10:50.421Z,3.10
2022-10-05T17:13:40.245Z,3.10
2022-10-05T17:16:14.094Z,2.90
2022-10-05T17:19:05.628Z,2.50
2022-10-05T17:21:38.101Z,3.87
2022-10-05T17:24:23.251Z,4.27
2022-10-05T17:26:57.113Z,7.10
2022-10-05T17:29:31.115Z,4.60
2022-10-05T17:32:00.920Z,3.20
2022-10-05T17:34:29.606Z,2.70
2022-10-05T17:36:58.228Z,2.73
2022-10-05T17:39:50.120Z,2.70
2022-10-05T17:42:45.802Z,2.20
2022-10-05T17:45:52.865Z,3.27
2022-10-05T17:48:40.645Z,2.33
2022-10-05T17:51:33.830Z,3.33
2022-10-05T17:54:18.514Z,2.10
2022-10-05T17:57:14.816Z,2.73
2022-10-05T17:59:47.099Z,2.33
2022-10-05T18:02:22.113Z,2.70
2022-10-05T18:05:00.217Z,2.60
2022-10-05T18:07:27.272Z,2.17
2022-10-05T18:10:22.578Z,2.57
2022-10-05T18:12:51.283Z,2.87
2022-10-05T18:15:46.542Z,2.83
2022-10-05T18:18:58.312Z,2.50
2022-10-05T18:21:31.908Z,2.20
2022-10-05T18:24:27.117Z,2.70
2022-10-05T18:27:04.698Z,3.10
2022-10-05T18:29:49.307Z,2.50
2022-10-05T18:32:25.063Z,3.13
2022-10-05T18:35:01.853Z,2.93
2022-10-05T18:37:41.408Z,3.40
2022-10-05T18:40:24.362Z,2.30
2022-10-05T18:42:59.650Z,2.30
2022-10-05T18:45:35.090Z,2.83
2022-10-05T18:48:15.880Z,2.97
2022-10-05T18:50:51.580Z,2.80
2022-10-05T18:53:27.036Z,2.70
2022-10-05T18:55:57.811Z,2.77
2022-10-05T18:58:30.860Z,2.50
2022-10-05T19:01:16.284Z,2.77
2022-10-05T19:03:53.483Z,3.07
2022-10-05T19:06:26.316Z,2.97
2022-10-05T19:09:03.821Z,2.47
2022-10-05T19:11:36.318Z,2.93
2022-10-05T19:14:10.525Z,2.70
2022-10-05T19:16:54.281Z,3.10
2022-10-05T19:19:43.427Z,2.50
2022-10-05T19:22:18.523Z,2.67
2022-10-05T19:25:00.608Z,2.27
2022-10-05T19:27:38.785Z,2.60
2022-10-05T19:30:20.102Z,2.60
2022-10-05T19:33:12.448Z,2.50
2022-10-05T19:35:48.722Z,2.27
2022-10-05T19:38:26.354Z,2.30
2022-10-05T19:41:03.297Z,2.87
2022-10-05T19:43:50.026Z,2.87
2022-10-05T19:46:25.737Z,2.60
2022-10-05T19:48:54.143Z,3.43
2022-10-05T19:51:27.989Z,3.03
2022-10-05T19:53:57.275Z,2.43
2022-10-05T19:56:27.121Z,2.70
2022-10-05T19:58:54.712Z,3.10
2022-10-05T20:01:27.277Z,2.97
2022-10-05T20:03:54.138Z,2.80
2022-10-05T20:06:21.485Z,2.80
2022-10-05T20:08:50.960Z,3.20
2022-10-05T20:11:19.669Z,3.00
2022-10-05T20:14:19.315Z,2.80
2022-10-05T20:16:46.219Z,3.10
2022-10-05T20:19:37.035Z,2.97
2022-10-05T20:22:26.372Z,3.20
2022-10-05T20:24:54.535Z,2.80
2022-10-05T20:27:39.914Z,3.10
2022-10-05T20:30:11.280Z,3.63
2022-10-05T20:32:38.028Z,2.50
2022-10-05T20:35:05.768Z,2.53
2022-10-05T20:37:32.721Z,2.97
2022-10-05T20:39:59.529Z,2.30
2022-10-05T20:42:26.336Z,2.53
2022-10-05T20:44:56.723Z,2.67
2022-10-05T20:47:26.024Z,2.37
2022-10-05T20:49:52.790Z,2.60
2022-10-05T20:52:19.545Z,2.33
2022-10-05T20:57:17.928Z,2.10
2022-10-05T20:59:44.701Z,2.70
2022-10-05T21:02:11.427Z,2.20
2022-10-05T21:04:41.478Z,2.40
2022-10-05T21:07:08.515Z,2.90
2022-10-05T21:09:35.335Z,2.17
2022-10-05T21:12:02.103Z,4.30
2022-10-05T21:14:28.858Z,2.57
2022-10-05T21:16:55.608Z,3.00
2022-10-05T21:19:22.436Z,2.80
2022-10-05T21:21:50.728Z,3.43
2022-10-05T21:24:17.486Z,3.20
2022-10-05T21:26:44.864Z,3.10
2022-10-05T21:29:12.910Z,3.10
2022-10-05T21:31:40.419Z,2.90
2022-10-05T21:34:07.483Z,3.07
2022-10-05T21:36:34.550Z,2.97
2022-10-05T21:39:02.758Z,3.23
2022-10-05T21:41:29.480Z,2.70
2022-10-05T21:43:56.220Z,3.10
2022-10-05T21:46:24.531Z,3.17
2022-10-05T21:48:51.386Z,3.57
2022-10-05T21:51:21.953Z,2.50
2022-10-05T21:53:51.772Z,3.47
2022-10-05T21:56:22.421Z,3.00
2022-10-05T21:58:50.114Z,2.80
2022-10-05T22:01:21.494Z,2.70
2022-10-05T22:03:49.457Z,2.60
2022-10-05T22:06:16.293Z,2.53
2022-10-05T22:08:43.014Z,2.73
2022-10-05T22:11:11.937Z,3.10
2022-10-05T22:13:45.207Z,2.77
2022-10-05T22:16:13.696Z,2.87
2022-10-05T22:18:40.820Z,3.10
2022-10-05T22:21:09.249Z,3.20
2022-10-05T22:23:36.058Z,3.10
2022-10-05T22:26:04.033Z,3.63
2022-10-05T22:28:32.424Z,3.20
2022-10-05T22:31:04.353Z,2.93
2022-10-05T22:33:31.363Z,3.27
2022-10-05T22:35:59.105Z,3.30
2022-10-05T22:38:26.498Z,2.83
2022-10-05T22:40:53.684Z,2.47
2022-10-05T22:43:20.635Z,3.70
2022-10-05T22:45:47.429Z,3.27
2022-10-05T22:48:15.765Z,3.80
2022-10-05T22:50:44.148Z,3.10
2022-10-05T22:53:10.957Z,4.03
2022-10-05T22:55:37.740Z,3.63
2022-10-05T22:58:04.502Z,2.90
2022-10-05T23:00:53.309Z,2.80
2022-10-05T23:03:19.429Z,3.00
2022-10-05T23:05:46.148Z,3.20
2022-10-05T23:08:12.895Z,3.20
2022-10-05T23:10:39.620Z,3.50
2022-10-05T23:13:06.533Z,3.00
2022-10-05T23:15:33.269Z,2.70
2022-10-05T23:18:00.051Z,3.53
2022-10-05T23:20:28.149Z,2.83
2022-10-05T23:22:54.912Z,2.60
2022-10-05T23:25:21.630Z,3.37
2022-10-05T23:27:48.379Z,2.67
2022-10-05T23:30:15.229Z,2.40
2022-10-05T23:32:43.584Z,3.13
2022-10-05T23:35:12.198Z,2.90
2022-10-05T23:37:41.929Z,2.90
2022-10-05T23:40:11.116Z,2.90
2022-10-05T23:42:38.220Z,2.53
2022-10-05T23:45:05.708Z,2.53
2022-10-05T23:47:32.487Z,2.90
2022-10-05T23:49:59.217Z,2.43
2022-10-05T23:52:26.113Z,2.53
2022-10-05T23:54:54.233Z,2.77
2022-10-05T23:57:21.207Z,2.63
2022-10-05T23:59:47.936Z,2.40
